KPTB/PTB METAR and TAF weather

Enter ICAO airport designator
Station Type Date Time Source
KPTB METAR 2019/11/15 05:15 UTC NOAA

KPTB 150515Z AUTO 11003KT 2 1/2SM +RA SCT010 BKN015 OVC031 04/03 A3029 RMK AO2 P0006 T00350025


Station Type Date Time Source
KPTB Decoded METAR 2019/11/15 05:15 UTC NOAA

Petersburg, Dinwiddie County Airport, VA, United States (KPTB) 37-11N 077-31W
Nov 15, 2019 - 12:15 AM EST / 2019.11.15 0515 UTC
Wind: from the ESE (110 degrees) at 3 MPH (3 KT):0
Visibility: 2 1/2 mile(s):0
Sky conditions: overcast
Weather: heavy rain
Precipitation last hour: 0.06 inches
Temperature: 38.3 F (3.5 C)
Dew Point: 36.5 F (2.5 C)
Relative Humidity: 93%
Pressure (altimeter): 30.29 in. Hg (1025 hPa)
ob: KPTB 150515Z AUTO 11003KT 2 1/2SM +RA SCT010 BKN015 OVC031 04/03 A3029 RMK AO2 P0006 T00350025
cycle: 5

Station Type Date Time Source
KPTB TAF UTC NOAA

Error!

Example: see airport list